createdAt,value
2022-10-19T00:00:25.651Z,20.77
2022-10-19T00:05:18.256Z,20.50
2022-10-19T00:10:12.475Z,21.00
2022-10-19T00:15:05.304Z,20.97
2022-10-19T00:19:58.049Z,23.93
2022-10-19T00:24:50.613Z,24.67
2022-10-19T00:29:44.475Z,35.97
2022-10-19T00:34:37.006Z,39.40
2022-10-19T00:39:29.508Z,41.77
2022-10-19T00:44:36.864Z,40.90
2022-10-19T00:49:32.359Z,43.10
2022-10-19T00:54:25.046Z,37.60
2022-10-19T00:59:19.210Z,33.40
2022-10-19T01:04:12.119Z,34.83
2022-10-19T01:09:06.399Z,34.43
2022-10-19T01:14:03.280Z,34.20
2022-10-19T01:18:59.194Z,29.47
2022-10-19T01:24:18.983Z,28.83
2022-10-19T01:29:18.736Z,24.40
2022-10-19T01:34:14.677Z,23.53
2022-10-19T01:39:10.252Z,29.70
2022-10-19T01:44:06.575Z,31.20
2022-10-19T01:49:02.205Z,30.80
2022-10-19T01:53:58.305Z,27.87
2022-10-19T01:58:51.542Z,25.30
2022-10-19T02:03:44.525Z,26.70
2022-10-19T02:08:39.950Z,24.63
2022-10-19T02:13:34.316Z,27.03
2022-10-19T02:18:29.531Z,26.93
2022-10-19T02:23:23.168Z,24.90
2022-10-19T02:28:15.727Z,24.43
2022-10-19T02:33:09.661Z,24.00
2022-10-19T02:38:02.689Z,27.80
2022-10-19T02:42:56.347Z,24.77
2022-10-19T02:47:50.465Z,23.60
2022-10-19T02:52:44.339Z,27.43
2022-10-19T02:57:37.480Z,27.43
2022-10-19T03:02:30.527Z,27.87
2022-10-19T03:07:23.338Z,25.47
2022-10-19T03:12:17.432Z,26.40
2022-10-19T03:17:09.967Z,25.33
2022-10-19T03:22:02.482Z,27.10
2022-10-19T03:26:54.985Z,27.77
2022-10-19T03:31:48.855Z,27.50
2022-10-19T03:36:41.674Z,28.30
2022-10-19T03:41:35.247Z,29.50
2022-10-19T03:46:27.957Z,28.80
2022-10-19T03:51:22.650Z,26.87
2022-10-19T03:56:15.770Z,27.10
2022-10-19T04:01:09.321Z,30.70
2022-10-19T04:06:05.597Z,28.90
2022-10-19T04:11:03.365Z,27.23
2022-10-19T04:15:55.885Z,27.23
2022-10-19T04:20:48.404Z,28.40
2022-10-19T04:25:40.954Z,27.83
2022-10-19T04:30:34.795Z,28.60
2022-10-19T04:35:27.269Z,27.93
2022-10-19T04:40:19.774Z,24.63
2022-10-19T04:45:12.515Z,26.43
2022-10-19T04:50:06.662Z,25.63
2022-10-19T04:54:59.194Z,25.70
2022-10-19T04:59:51.672Z,24.83
2022-10-19T05:04:45.201Z,26.10
2022-10-19T05:09:40.383Z,24.50
2022-10-19T05:14:35.027Z,26.80
2022-10-19T05:19:29.284Z,24.50
2022-10-19T05:24:21.809Z,25.00
2022-10-19T05:29:15.648Z,25.33
2022-10-19T05:39:06.770Z,26.83
2022-10-19T05:43:59.877Z,23.97
2022-10-19T05:48:54.069Z,26.73
2022-10-19T05:53:46.648Z,25.10
2022-10-19T05:58:39.247Z,26.77
2022-10-19T06:03:31.987Z,25.90
2022-10-19T06:08:25.964Z,26.23
2022-10-19T06:13:19.403Z,27.67
2022-10-19T06:18:12.814Z,27.00
2022-10-19T06:23:05.759Z,29.50
2022-10-19T06:27:59.762Z,32.87
2022-10-19T06:32:52.358Z,99.87
2022-10-19T06:37:45.101Z,25.20
2022-10-19T06:42:38.956Z,26.40
2022-10-19T06:47:33.280Z,25.47
2022-10-19T06:52:26.182Z,30.33
2022-10-19T06:57:18.720Z,30.33
2022-10-19T07:02:11.603Z,31.63
2022-10-19T07:07:05.813Z,32.03
2022-10-19T07:11:58.310Z,25.43
2022-10-19T07:16:50.967Z,26.30
2022-10-19T07:21:44.815Z,24.80
2022-10-19T07:26:39.022Z,25.27
2022-10-19T07:31:31.567Z,23.63
2022-10-19T07:36:24.751Z,24.10
2022-10-19T07:41:18.026Z,22.40
2022-10-19T07:46:12.593Z,22.27
2022-10-19T07:51:06.158Z,22.43
2022-10-19T07:56:03.749Z,23.00
2022-10-19T08:01:00.173Z,21.90
2022-10-19T08:05:54.068Z,22.00
2022-10-19T08:10:46.596Z,24.43
2022-10-19T08:15:39.109Z,23.20
2022-10-19T08:20:31.634Z,22.90
2022-10-19T08:25:25.482Z,20.70
2022-10-19T08:30:18.105Z,20.97
2022-10-19T08:35:11.011Z,20.23
2022-10-19T08:40:03.619Z,20.53
2022-10-19T08:45:15.204Z,18.60
2022-10-19T08:50:15.726Z,16.60
2022-10-19T08:55:15.078Z,15.50
2022-10-19T09:00:15.552Z,16.80
2022-10-19T09:05:15.008Z,16.40
2022-10-19T09:10:15.810Z,17.93
2022-10-19T09:15:12.309Z,17.90
2022-10-19T09:20:14.761Z,19.90
2022-10-19T09:25:13.990Z,19.63
2022-10-19T09:30:07.586Z,20.37
2022-10-19T09:35:02.363Z,22.00
2022-10-19T09:39:56.608Z,21.70
2022-10-19T09:44:50.124Z,23.43
2022-10-19T09:49:43.421Z,22.90
2022-10-19T09:54:37.317Z,24.30
2022-10-19T09:59:34.117Z,23.53
2022-10-19T10:04:26.641Z,21.67
2022-10-19T10:09:19.865Z,22.43
2022-10-19T10:14:18.222Z,23.33
2022-10-19T10:19:14.320Z,22.63
2022-10-19T10:24:16.925Z,24.13
2022-10-19T10:29:20.168Z,24.40
2022-10-19T10:34:30.224Z,22.30
2022-10-19T10:39:30.309Z,21.37
2022-10-19T10:44:24.468Z,20.77
2022-10-19T10:49:21.608Z,20.87
2022-10-19T10:54:17.949Z,19.80
2022-10-19T10:59:13.226Z,19.77
2022-10-19T11:04:09.567Z,19.63
2022-10-19T11:09:08.804Z,19.30
2022-10-19T11:14:03.040Z,20.67
2022-10-19T11:18:58.698Z,19.50
2022-10-19T11:24:01.423Z,17.63
2022-10-19T11:29:03.649Z,18.60
2022-10-19T11:34:00.335Z,17.40
2022-10-19T11:39:00.234Z,18.57
2022-10-19T11:43:58.583Z,16.33
2022-10-19T11:49:08.974Z,16.53
2022-10-19T11:54:14.413Z,15.50
2022-10-19T11:59:14.494Z,16.00
2022-10-19T12:04:28.934Z,14.70
2022-10-19T12:09:30.684Z,14.20
2022-10-19T12:14:24.680Z,11.83
2022-10-19T12:19:18.603Z,9.53
2022-10-19T12:24:14.165Z,9.70
2022-10-19T12:29:13.255Z,9.60
2022-10-19T12:34:08.466Z,8.67
2022-10-19T12:39:03.858Z,8.73
2022-10-19T12:44:11.333Z,8.90
2022-10-19T12:49:22.357Z,8.73
2022-10-19T12:54:16.317Z,9.50
2022-10-19T12:59:20.804Z,8.93
2022-10-19T13:04:14.774Z,8.93
2022-10-19T13:09:09.176Z,8.70
2022-10-19T13:14:04.977Z,8.20
2022-10-19T13:19:07.334Z,8.17
2022-10-19T13:24:20.191Z,8.47
2022-10-19T13:29:26.707Z,8.53
2022-10-19T13:34:19.434Z,7.53
2022-10-19T13:39:13.956Z,7.50
2022-10-19T13:44:16.093Z,7.67
2022-10-19T13:49:35.535Z,7.27
2022-10-19T13:54:35.185Z,7.13
2022-10-19T13:59:39.164Z,6.73
2022-10-19T14:04:36.010Z,6.73
2022-10-19T14:09:49.266Z,6.60
2022-10-19T14:19:43.002Z,6.10
2022-10-19T14:24:36.317Z,5.87
2022-10-19T14:29:44.615Z,5.70
2022-10-19T14:34:40.146Z,3.67
2022-10-19T14:39:33.607Z,3.90
2022-10-19T14:44:35.637Z,3.70
2022-10-19T14:49:28.215Z,3.70
2022-10-19T14:54:24.067Z,3.80
2022-10-19T14:59:21.405Z,3.77
2022-10-19T15:04:18.319Z,3.93
2022-10-19T15:09:30.346Z,3.80
2022-10-19T15:14:31.216Z,3.73
2022-10-19T15:19:26.991Z,4.47
2022-10-19T15:24:25.546Z,3.53
2022-10-19T15:29:21.465Z,4.00
2022-10-19T15:34:22.659Z,4.10
2022-10-19T15:39:32.859Z,4.00
2022-10-19T15:44:31.825Z,4.00
2022-10-19T15:49:51.510Z,3.63
2022-10-19T15:54:48.080Z,4.00
2022-10-19T15:59:40.662Z,3.90
2022-10-19T16:04:33.539Z,3.83
2022-10-19T16:09:26.201Z,4.00
2022-10-19T16:14:20.133Z,3.90
2022-10-19T16:19:13.509Z,4.27
2022-10-19T16:24:06.559Z,4.30
2022-10-19T16:28:59.140Z,4.10
2022-10-19T16:33:53.103Z,4.97
2022-10-19T16:38:45.674Z,8.80
2022-10-19T16:43:38.424Z,9.00
2022-10-19T16:48:31.349Z,8.13
2022-10-19T16:53:25.219Z,7.70
2022-10-19T16:58:17.727Z,8.00
2022-10-19T17:03:10.249Z,8.87
2022-10-19T17:08:02.767Z,9.60
2022-10-19T17:12:56.605Z,9.90
2022-10-19T17:17:49.298Z,11.10
2022-10-19T17:22:41.811Z,9.57
2022-10-19T17:27:34.288Z,12.27
2022-10-19T17:32:28.177Z,10.37
2022-10-19T17:37:20.680Z,9.57
2022-10-19T17:42:13.211Z,9.60
2022-10-19T17:47:05.718Z,8.40
2022-10-19T17:51:59.581Z,8.80
2022-10-19T17:56:52.064Z,8.50
2022-10-19T18:01:44.607Z,8.83
2022-10-19T18:06:37.635Z,8.47
2022-10-19T18:11:34.487Z,9.40
2022-10-19T18:16:28.072Z,9.40
2022-10-19T18:21:21.948Z,9.77
2022-10-19T18:26:15.547Z,10.93
2022-10-19T18:31:09.976Z,11.40
2022-10-19T18:36:02.911Z,11.90
2022-10-19T18:40:56.128Z,10.77
2022-10-19T18:45:52.268Z,11.50
2022-10-19T18:50:46.182Z,13.60
2022-10-19T18:55:38.707Z,14.30
2022-10-19T19:00:31.225Z,13.57
2022-10-19T19:05:23.763Z,13.07
2022-10-19T19:10:18.244Z,15.77
2022-10-19T19:15:11.187Z,15.57
2022-10-19T19:20:03.738Z,16.97
2022-10-19T19:24:56.275Z,16.90
2022-10-19T19:29:50.481Z,14.87
2022-10-19T19:34:43.068Z,13.17
2022-10-19T19:39:35.583Z,13.73
2022-10-19T19:44:29.699Z,14.23
2022-10-19T19:49:24.855Z,16.57
2022-10-19T19:54:17.375Z,16.97
2022-10-19T19:59:11.261Z,17.03
2022-10-19T20:04:03.886Z,16.60
2022-10-19T20:08:57.958Z,20.53
2022-10-19T20:13:50.657Z,20.60
2022-10-19T20:18:44.784Z,18.70
2022-10-19T20:23:37.308Z,17.40
2022-10-19T20:28:32.655Z,18.40
2022-10-19T20:33:25.221Z,17.77
2022-10-19T20:38:17.733Z,18.90
2022-10-19T20:43:11.312Z,18.67
2022-10-19T20:48:05.257Z,19.10
2022-10-19T20:52:57.735Z,18.60
2022-10-19T20:57:50.226Z,19.50
2022-10-19T21:02:44.646Z,19.40
2022-10-19T21:07:38.507Z,23.70
2022-10-19T21:12:30.992Z,22.20
2022-10-19T21:17:23.496Z,20.53
2022-10-19T21:22:16.112Z,24.13
2022-10-19T21:27:10.528Z,27.00
2022-10-19T21:32:03.322Z,28.27
2022-10-19T21:36:55.847Z,24.87
2022-10-19T21:41:48.704Z,25.57
2022-10-19T21:46:42.985Z,25.80
2022-10-19T21:51:36.353Z,27.33
2022-10-19T21:56:29.162Z,27.20
2022-10-19T22:01:22.951Z,27.80
2022-10-19T22:06:16.940Z,26.50
2022-10-19T22:11:10.470Z,27.00
2022-10-19T22:16:06.408Z,31.50
2022-10-19T22:21:02.617Z,36.50
2022-10-19T22:25:56.485Z,32.77
2022-10-19T22:30:53.525Z,29.30
2022-10-19T22:35:53.550Z,26.83
2022-10-19T22:40:49.096Z,29.40
2022-10-19T22:45:42.989Z,29.50
2022-10-19T22:50:35.468Z,31.70
2022-10-19T22:55:27.943Z,32.30
2022-10-19T23:00:20.618Z,31.10
2022-10-19T23:05:14.627Z,31.90
2022-10-19T23:10:07.444Z,39.80
2022-10-19T23:14:59.935Z,42.10
2022-10-19T23:19:52.429Z,38.70
2022-10-19T23:24:46.291Z,39.67
2022-10-19T23:29:38.783Z,43.70
2022-10-19T23:34:31.300Z,43.97
2022-10-19T23:39:23.802Z,48.10
2022-10-19T23:44:17.720Z,43.53
2022-10-19T23:49:10.223Z,41.27
2022-10-19T23:54:02.725Z,44.00
2022-10-19T23:58:55.448Z,40.33
